Starks, Maine
Current Conditions -  °F | °C
As of 6:15 AM on Thursday 23 Oct 2014 (Local Time) from KWVL Reporting Station
Overcast Overcast  
Wind Chill: 40°   Ceiling: 800
Heat Index: 46°   Visibility: 6mi
Dew Point: 41°   Wind: 16mph
Humidity: 81%   Direction: 30°NNE
Pressure: 29.92"   Gusts: 25mph
Location:  44.7784°N, 69.9606°W
Report Text: KWVL 231015Z 03014G22KT 6SM BKN008 OVC014 08/05 A2992 RMK AO1 P0009
Loading
Personal Weather Stations






























Interactive Weather Map
Tropical Storm Tracking
New forecast layout! Learn more

10-Day Weather Forecast

Advertisements
Track Severe Weather on mobile